Time;durP1;ratioP1;P1;durP2;ratioP2;P2;SDS_P1;SDS_P2;PMS_P1;PMS_P2;Temp;Humidity;BMP_temperature;BMP_pressure;BME280_temperature;BME280_humidity;BME280_pressure;Samples;Min_cycle;Max_cycle;Signal;HPM_P1;HPM_P2
2024/03/21 00:00:18;;;;;;;0.30;0.20;;;;;;;9.19;100.00;100514.88;5015784;28;20306;-49
2024/03/21 00:02:47;;;;;;;0.30;0.20;;;;;;;9.15;100.00;100523.78;5015626;28;20217;-49
2024/03/21 00:05:14;;;;;;;0.30;0.20;;;;;;;9.18;100.00;100523.75;5015850;28;20446;-50
2024/03/21 00:07:46;;;;;;;0.30;0.20;;;;;;;9.06;100.00;100521.31;5015245;28;20464;-49
2024/03/21 00:10:20;;;;;;;0.40;0.40;;;;;;;8.89;100.00;100516.28;5015727;28;20488;-50
2024/03/21 00:12:47;;;;;;;0.30;0.20;;;;;;;9.00;99.81;100512.59;5002575;28;20470;-49
2024/03/21 00:15:13;;;;;;;0.30;0.20;;;;;;;8.85;100.00;100509.31;5015637;28;20803;-48
2024/03/21 00:17:39;;;;;;;0.30;0.20;;;;;;;8.94;100.00;100513.59;5002028;28;20462;-50
2024/03/21 00:20:10;;;;;;;0.30;0.20;;;;;;;8.76;100.00;100509.47;5015222;28;20267;-49
2024/03/21 00:22:44;;;;;;;0.30;0.20;;;;;;;8.81;100.00;100518.22;5015468;28;20325;-49
2024/03/21 00:25:10;;;;;;;0.30;0.20;;;;;;;8.70;100.00;100520.19;5015233;28;20558;-50
2024/03/21 00:27:37;;;;;;;0.30;0.20;;;;;;;8.75;100.00;100525.41;5015283;28;20499;-49
2024/03/21 00:30:04;;;;;;;0.30;0.20;;;;;;;8.77;100.00;100523.59;5015214;28;20470;-49
2024/03/21 00:32:34;;;;;;;0.30;0.20;;;;;;;8.80;100.00;100531.50;5015313;28;20468;-49
2024/03/21 00:35:00;;;;;;;0.30;0.20;;;;;;;8.74;100.00;100524.53;5014851;28;20467;-49
2024/03/21 00:37:26;;;;;;;0.30;0.20;;;;;;;8.71;100.00;100523.72;5014493;28;20606;-49
2024/03/21 00:39:54;;;;;;;0.30;0.20;;;;;;;8.56;100.00;100524.84;5015065;28;21014;-49
2024/03/21 00:42:20;;;;;;;0.30;0.20;;;;;;;8.68;99.46;100526.41;5012713;28;20478;-48
2024/03/21 00:44:46;;;;;;;0.30;0.20;;;;;;;8.40;100.00;100518.94;5014732;28;20467;-49
2024/03/21 00:47:11;;;;;;;0.30;0.20;;;;;;;8.49;99.99;100520.53;5015023;28;20514;-49
2024/03/21 00:49:37;;;;;;;0.30;0.20;;;;;;;8.57;100.00;100519.53;5015042;28;20240;-49
2024/03/21 00:52:02;;;;;;;0.30;0.20;;;;;;;8.42;100.00;100525.06;5014633;28;20259;-49
2024/03/21 00:54:28;;;;;;;1.80;1.70;;;;;;;8.39;100.00;100514.53;5014899;28;20363;-49
2024/03/21 00:56:53;;;;;;;0.30;0.20;;;;;;;8.50;100.00;100523.19;5014715;28;20237;-49
2024/03/21 00:59:21;;;;;;;0.30;0.20;;;;;;;8.41;100.00;100512.72;5014787;28;20252;-49
2024/03/21 01:01:47;;;;;;;0.30;0.20;;;;;;;8.43;100.00;100516.22;5014850;28;20223;-49
2024/03/21 01:04:13;;;;;;;0.30;0.20;;;;;;;8.37;100.00;100515.47;5014383;28;20533;-49
2024/03/21 01:06:39;;;;;;;0.30;0.20;;;;;;;8.23;100.00;100515.66;5014709;28;20495;-49
2024/03/21 01:09:04;;;;;;;0.30;0.20;;;;;;;8.38;100.00;100517.22;5014785;28;20335;-50
2024/03/21 01:11:30;;;;;;;0.30;0.20;;;;;;;8.21;100.00;100517.41;4998371;28;20267;-49
2024/03/21 01:13:55;;;;;;;0.30;0.20;;;;;;;8.22;100.00;100514.78;5014419;28;20341;-50
2024/03/21 01:16:21;;;;;;;0.30;0.20;;;;;;;8.15;100.00;100515.75;5014511;28;20240;-50
2024/03/21 01:18:46;;;;;;;0.30;0.20;;;;;;;8.15;100.00;100514.88;5014303;28;20241;-50
2024/03/21 01:21:15;;;;;;;0.30;0.20;;;;;;;8.09;100.00;100512.34;5014828;28;20296;-50
2024/03/21 01:23:40;;;;;;;0.30;0.20;;;;;;;8.09;100.00;100509.69;5014727;28;20217;-50
2024/03/21 01:26:06;;;;;;;0.30;0.20;;;;;;;8.01;100.00;100520.38;5014736;28;20555;-49
2024/03/21 01:28:31;;;;;;;0.30;0.20;;;;;;;8.20;100.00;100518.31;5014245;28;20809;-50
2024/03/21 01:31:00;;;;;;;0.30;0.20;;;;;;;8.07;100.00;100511.44;4998135;28;20216;-49
2024/03/21 01:33:27;;;;;;;0.30;0.20;;;;;;;7.96;100.00;100517.81;5014629;28;20216;-50
2024/03/21 01:35:53;;;;;;;0.30;0.20;;;;;;;7.95;100.00;100507.25;5014499;28;20464;-50
2024/03/21 01:38:19;;;;;;;0.30;0.20;;;;;;;7.96;100.00;100516.94;4997723;28;20553;-50
2024/03/21 01:40:44;;;;;;;0.30;0.20;;;;;;;7.88;100.00;100513.50;5014233;28;20217;-50
2024/03/21 01:43:24;;;;;;;0.33;0.20;;;;;;;7.87;100.00;100515.28;5014460;28;20480;-50
2024/03/21 01:46:10;;;;;;;0.30;0.20;;;;;;;7.91;100.00;100516.09;5014468;28;20220;-50
2024/03/21 01:48:41;;;;;;;0.30;0.20;;;;;;;7.86;100.00;100521.47;5014407;28;20901;-50
2024/03/21 01:51:06;;;;;;;0.30;0.20;;;;;;;7.84;100.00;100519.75;5017435;28;20460;-50
2024/03/21 01:53:33;;;;;;;0.30;0.20;;;;;;;7.84;100.00;100517.97;5018400;28;20861;-49
2024/03/21 01:55:59;;;;;;;0.30;0.20;;;;;;;7.81;100.00;100519.75;5018111;28;20220;-50
2024/03/21 01:58:25;;;;;;;0.30;0.20;;;;;;;7.78;100.00;100528.63;5017913;28;21062;-50
2024/03/21 02:00:50;;;;;;;0.30;0.20;;;;;;;7.80;100.00;100529.47;5017968;28;20468;-50
2024/03/21 02:03:16;;;;;;;0.30;0.20;;;;;;;7.76;100.00;100526.91;5018274;28;20346;-50
2024/03/21 02:05:42;;;;;;;0.30;0.20;;;;;;;7.87;100.00;100531.16;5017991;28;20578;-50
2024/03/21 02:08:08;;;;;;;0.30;0.20;;;;;;;7.83;100.00;100531.22;5017570;28;20651;-50
2024/03/21 02:10:35;;;;;;;0.30;0.20;;;;;;;7.82;100.00;100522.41;5017780;28;20736;-49
2024/03/21 02:13:02;;;;;;;0.30;0.20;;;;;;;7.62;99.93;100527.06;5017915;28;20838;-49
2024/03/21 02:15:27;;;;;;;0.30;0.20;;;;;;;7.69;100.00;100526.13;5017815;28;20467;-49
2024/03/21 02:17:53;;;;;;;0.30;0.20;;;;;;;7.73;100.00;100528.69;5017649;28;20507;-49
2024/03/21 02:20:18;;;;;;;0.30;0.20;;;;;;;7.57;100.00;100521.84;5017698;28;20299;-49
2024/03/21 02:22:44;;;;;;;0.30;0.20;;;;;;;7.51;100.00;100521.91;5017967;28;20228;-50
2024/03/21 02:25:11;;;;;;;0.30;0.20;;;;;;;7.49;100.00;100522.84;5017772;28;20228;-50
2024/03/21 02:27:40;;;;;;;1.20;1.20;;;;;;;7.58;100.00;100525.38;5017649;28;20224;-50
2024/03/21 02:30:08;;;;;;;0.30;0.20;;;;;;;7.82;100.00;100517.13;5017535;28;20835;-49
2024/03/21 02:32:34;;;;;;;0.30;0.20;;;;;;;7.89;100.00;100516.13;5017611;28;20539;-50
2024/03/21 02:35:02;;;;;;;0.30;0.20;;;;;;;7.82;100.00;100527.69;5017157;28;20463;-50
2024/03/21 02:37:27;;;;;;;0.30;0.20;;;;;;;7.84;100.00;100533.84;5017208;28;20491;-50
2024/03/21 02:39:53;;;;;;;0.30;0.20;;;;;;;7.66;100.00;100529.66;5017235;28;20559;-50
2024/03/21 02:42:20;;;;;;;0.30;0.30;;;;;;;7.71;100.00;100538.44;5014798;28;20743;-50
2024/03/21 02:44:47;;;;;;;0.30;0.20;;;;;;;7.71;100.00;100532.25;5016977;28;20216;-50
2024/03/21 02:47:13;;;;;;;0.30;0.20;;;;;;;7.75;100.00;100526.03;5017149;28;20460;-50
2024/03/21 02:49:39;;;;;;;0.30;0.20;;;;;;;7.83;100.00;100532.09;5017045;28;21039;-50
2024/03/21 02:52:06;;;;;;;0.30;0.20;;;;;;;7.73;100.00;100536.63;5017336;28;20488;-50
2024/03/21 02:54:32;;;;;;;0.30;0.20;;;;;;;7.70;100.00;100541.09;5016744;28;20586;-50
2024/03/21 02:56:58;;;;;;;0.30;0.20;;;;;;;7.86;100.00;100537.34;5016701;28;20499;-50
2024/03/21 02:59:24;;;;;;;0.30;0.20;;;;;;;7.95;100.00;100533.72;5016604;28;20487;-50
2024/03/21 03:01:49;;;;;;;0.30;0.20;;;;;;;7.96;100.00;100553.97;5016552;28;20513;-50
2024/03/21 03:04:15;;;;;;;0.30;0.20;;;;;;;7.83;100.00;100541.81;5016566;28;20248;-50
2024/03/21 03:06:40;;;;;;;0.30;0.20;;;;;;;7.80;100.00;100544.47;5017195;28;20285;-49
2024/03/21 03:09:06;;;;;;;0.30;0.20;;;;;;;7.73;100.00;100538.41;5016863;28;20244;-50
2024/03/21 03:11:31;;;;;;;0.30;0.20;;;;;;;7.78;100.00;100547.13;5017394;28;20232;-49
2024/03/21 03:13:57;;;;;;;0.30;0.20;;;;;;;7.84;100.00;100543.56;5017516;28;20311;-50
2024/03/21 03:16:22;;;;;;;0.30;0.20;;;;;;;8.06;100.00;100541.47;5017005;28;20213;-50
2024/03/21 03:18:48;;;;;;;0.30;0.20;;;;;;;8.12;100.00;100552.00;5016392;28;20276;-50
2024/03/21 03:21:14;;;;;;;0.30;0.20;;;;;;;8.29;100.00;100542.00;5016727;28;20220;-50
2024/03/21 03:23:39;;;;;;;0.30;0.20;;;;;;;8.39;100.00;100541.03;5016319;28;20992;-50
2024/03/21 03:26:05;;;;;;;0.30;0.20;;;;;;;8.43;100.00;100544.50;5016733;28;20300;-50
2024/03/21 03:28:30;;;;;;;0.30;0.20;;;;;;;8.28;100.00;100548.22;5016335;28;20757;-50
2024/03/21 03:30:56;;;;;;;0.30;0.20;;;;;;;8.27;100.00;100539.41;5016479;28;20259;-51
2024/03/21 03:36:06;;;;;;;0.30;0.20;;;;;;;8.36;100.00;100541.06;5015964;28;20213;-50
2024/03/21 03:38:31;;;;;;;0.30;0.20;;;;;;;8.36;100.00;100545.47;5016182;28;20478;-50
2024/03/21 03:40:57;;;;;;;0.30;0.20;;;;;;;8.42;100.00;100546.25;5015976;28;20217;-50
2024/03/21 03:43:22;;;;;;;0.30;0.20;;;;;;;8.51;100.00;100539.97;5014265;28;20251;-50
2024/03/21 03:45:48;;;;;;;0.30;0.20;;;;;;;8.35;100.00;100546.38;5016390;28;20225;-50
2024/03/21 03:48:13;;;;;;;0.30;0.20;;;;;;;8.47;100.00;100549.69;5015442;28;20225;-50
2024/03/21 03:50:39;;;;;;;0.30;0.20;;;;;;;8.46;100.00;100544.44;5015745;28;20225;-50
2024/03/21 03:53:04;;;;;;;0.30;0.20;;;;;;;8.38;100.00;100544.56;5015473;28;20283;-50
2024/03/21 03:55:30;;;;;;;0.30;0.20;;;;;;;8.28;100.00;100542.91;5015901;28;20216;-51
2024/03/21 03:57:55;;;;;;;0.30;0.20;;;;;;;8.54;100.00;100539.91;5015494;28;20355;-50
2024/03/21 04:00:21;;;;;;;0.30;0.20;;;;;;;8.52;100.00;100537.28;5015677;28;20563;-50
2024/03/21 04:02:47;;;;;;;0.30;0.20;;;;;;;8.42;100.00;100537.44;5015651;28;20717;-49
2024/03/21 04:05:17;;;;;;;0.30;0.20;;;;;;;8.44;100.00;100531.22;5015622;28;20208;-50
2024/03/21 04:07:44;;;;;;;0.30;0.20;;;;;;;8.53;100.00;100535.50;5015470;28;20545;-49
2024/03/21 04:10:09;;;;;;;0.30;0.20;;;;;;;8.50;100.00;100527.63;5015781;28;20864;-50
2024/03/21 04:12:35;;;;;;;0.30;0.20;;;;;;;8.50;100.00;100530.25;5014649;28;20460;-50
2024/03/21 04:15:00;;;;;;;0.30;0.20;;;;;;;8.41;100.00;100523.31;5015647;28;20243;-50
2024/03/21 04:17:26;;;;;;;0.30;0.20;;;;;;;8.43;100.00;100520.66;5015280;28;20237;-50
2024/03/21 04:19:51;;;;;;;0.30;0.20;;;;;;;8.54;100.00;100519.56;5015337;28;20225;-49
2024/03/21 04:22:17;;;;;;;0.30;0.20;;;;;;;8.50;100.00;100520.53;5015536;28;20264;-55
2024/03/21 04:24:43;;;;;;;0.30;0.20;;;;;;;8.44;100.00;100517.97;5015133;28;20634;-50
2024/03/21 04:27:09;;;;;;;18.23;7.67;;;;;;;8.49;100.00;100517.88;5015280;28;20696;-50
2024/03/21 04:29:34;;;;;;;0.30;0.20;;;;;;;8.44;100.00;100517.97;5015188;28;20570;-50
2024/03/21 04:32:00;;;;;;;0.30;0.20;;;;;;;8.46;100.00;100516.16;5015216;28;20459;-50
2024/03/21 04:34:26;;;;;;;0.30;0.20;;;;;;;8.33;100.00;100525.16;5014972;28;20216;-50
2024/03/21 04:36:51;;;;;;;0.30;0.20;;;;;;;8.56;100.00;100522.19;5014890;28;20298;-50
2024/03/21 04:39:17;;;;;;;0.30;0.20;;;;;;;8.77;100.00;100528.88;5015115;28;20247;-50
2024/03/21 04:41:42;;;;;;;0.30;0.20;;;;;;;8.81;100.00;100538.56;5012983;28;20221;-50
2024/03/21 04:44:08;;;;;;;0.30;0.20;;;;;;;8.71;100.00;100534.31;5015101;28;20274;-50
2024/03/21 04:46:33;;;;;;;0.30;0.20;;;;;;;8.77;100.00;100543.03;5014759;28;20300;-49
2024/03/21 04:48:59;;;;;;;0.30;0.20;;;;;;;8.61;100.00;100547.69;5015044;28;20272;-50
2024/03/21 04:51:25;;;;;;;0.30;0.20;;;;;;;8.64;100.00;100546.81;5015157;28;20212;-49
2024/03/21 04:53:50;;;;;;;0.30;0.20;;;;;;;8.71;100.00;100548.44;5014704;28;20757;-50
2024/03/21 04:56:16;;;;;;;0.30;0.20;;;;;;;8.61;100.00;100552.13;5015009;28;20287;-50
2024/03/21 04:58:41;;;;;;;0.30;0.20;;;;;;;8.44;100.00;100546.22;5015005;28;20298;-49
2024/03/21 05:01:07;;;;;;;0.30;0.20;;;;;;;8.49;100.00;100557.63;5014826;28;20279;-50
2024/03/21 05:03:33;;;;;;;0.30;0.20;;;;;;;8.44;100.00;100554.19;5014723;28;20266;-50
2024/03/21 05:05:59;;;;;;;0.30;0.20;;;;;;;8.48;100.00;100555.88;5014925;28;20224;-50
2024/03/21 05:08:25;;;;;;;0.30;0.20;;;;;;;8.47;100.00;100559.44;5015152;28;20602;-50
2024/03/21 05:10:50;;;;;;;0.30;0.20;;;;;;;8.45;100.00;100551.50;5014846;28;20217;-51
2024/03/21 05:13:16;;;;;;;0.30;0.20;;;;;;;8.35;100.00;100560.47;5014586;28;20979;-50
2024/03/21 05:15:49;;;;;;;0.30;0.20;;;;;;;8.48;100.00;100563.81;5014593;28;20224;-49
2024/03/21 05:18:14;;;;;;;0.30;0.20;;;;;;;8.54;100.00;100561.09;5014271;28;20244;-50
2024/03/21 05:20:40;;;;;;;0.30;0.20;;;;;;;8.54;100.00;100574.34;5014611;28;20483;-50
2024/03/21 05:23:05;;;;;;;0.30;0.20;;;;;;;8.39;100.00;100579.88;5015071;28;20212;-50
2024/03/21 05:25:34;;;;;;;0.30;0.20;;;;;;;8.48;100.00;100583.25;5018406;28;20650;-50
2024/03/21 05:28:00;;;;;;;0.30;0.20;;;;;;;8.53;100.00;100576.13;5002407;28;20244;-50
2024/03/21 05:30:25;;;;;;;0.30;0.20;;;;;;;8.49;100.00;100586.75;5018483;28;20496;-50
2024/03/21 05:32:51;;;;;;;0.30;0.20;;;;;;;8.42;100.00;100582.47;5018801;28;20250;-50
2024/03/21 05:35:17;;;;;;;0.30;0.20;;;;;;;8.41;100.00;100589.53;5018570;28;20221;-50
2024/03/21 05:37:42;;;;;;;0.30;0.20;;;;;;;8.30;100.00;100591.44;5018244;28;20241;-50
2024/03/21 05:40:09;;;;;;;0.30;0.20;;;;;;;8.33;100.00;100607.28;5018495;28;20533;-50
2024/03/21 05:42:35;;;;;;;0.30;0.20;;;;;;;8.28;100.00;100607.34;5015986;28;20752;-50
2024/03/21 05:45:00;;;;;;;0.30;0.20;;;;;;;8.26;100.00;100610.91;5018209;28;20501;-50
2024/03/21 05:47:26;;;;;;;0.30;0.20;;;;;;;8.25;100.00;100606.53;5001927;28;20444;-50
2024/03/21 05:49:51;;;;;;;0.30;0.20;;;;;;;8.21;100.00;100612.75;5018444;28;20308;-50
2024/03/21 05:52:17;;;;;;;0.30;0.30;;;;;;;8.26;100.00;100624.16;5018376;28;20601;-50
2024/03/21 05:54:51;;;;;;;0.30;0.20;;;;;;;8.26;100.00;100618.88;5018262;28;20644;-50
2024/03/21 05:57:17;;;;;;;0.30;0.20;;;;;;;8.59;100.00;100623.69;5010497;28;20545;-50
2024/03/21 05:59:43;;;;;;;0.30;0.20;;;;;;;8.41;100.00;100629.28;5017860;28;20542;-50
2024/03/21 06:02:09;;;;;;;0.30;0.20;;;;;;;8.35;100.00;100624.03;5018094;28;20225;-50
2024/03/21 06:04:35;;;;;;;0.30;0.20;;;;;;;8.37;100.00;100642.59;5001346;28;20459;-50
2024/03/21 06:07:02;;;;;;;0.30;0.20;;;;;;;8.47;100.00;100641.53;5017831;28;20452;-50
2024/03/21 06:09:29;;;;;;;0.30;0.20;;;;;;;8.47;100.00;100642.41;5001275;28;20495;-50
2024/03/21 06:11:55;;;;;;;0.30;0.20;;;;;;;8.59;100.00;100644.03;5017632;28;20475;-50
2024/03/21 06:14:20;;;;;;;0.30;0.20;;;;;;;8.55;100.00;100642.31;5017753;28;20550;-50
2024/03/21 06:16:46;;;;;;;0.77;0.77;;;;;;;8.68;100.00;100650.97;5017747;28;20237;-51
2024/03/21 06:19:11;;;;;;;0.30;0.20;;;;;;;8.74;100.00;100650.84;5017458;28;20671;-50
2024/03/21 06:21:37;;;;;;;0.30;0.20;;;;;;;8.76;100.00;100647.28;5017609;28;20212;-50
2024/03/21 06:24:03;;;;;;;0.30;0.20;;;;;;;8.72;100.00;100644.72;5017538;28;20589;-50
2024/03/21 06:26:28;;;;;;;0.30;0.20;;;;;;;8.85;100.00;100651.56;5017437;28;20298;-50
2024/03/21 06:28:54;;;;;;;0.30;0.20;;;;;;;8.80;100.00;100654.31;5017464;28;20283;-50
2024/03/21 06:31:19;;;;;;;0.30;0.20;;;;;;;9.01;100.00;100653.06;5017677;28;20304;-49
2024/03/21 06:33:45;;;;;;;0.30;0.20;;;;;;;9.17;100.00;100659.88;5017454;28;20213;-50
2024/03/21 06:36:10;;;;;;;0.30;0.20;;;;;;;9.32;100.00;100663.16;5016472;28;20291;-50
2024/03/21 06:38:36;;;;;;;0.30;0.20;;;;;;;9.34;100.00;100669.34;5016982;28;20255;-50
2024/03/21 06:41:01;;;;;;;0.30;0.20;;;;;;;9.57;100.00;100660.94;5016173;28;20763;-50
2024/03/21 06:43:27;;;;;;;0.30;0.20;;;;;;;9.68;100.00;100675.78;5016125;28;20239;-50
2024/03/21 06:45:57;;;;;;;0.60;0.60;;;;;;;9.92;100.00;100678.88;5017208;28;20696;-50
2024/03/21 06:48:23;;;;;;;0.30;0.20;;;;;;;10.05;100.00;100677.72;5017009;28;20237;-50
2024/03/21 06:50:49;;;;;;;0.30;0.20;;;;;;;10.18;100.00;100673.91;5017086;28;20463;-50
2024/03/21 06:53:15;;;;;;;0.30;0.20;;;;;;;10.33;100.00;100678.06;5017150;28;20456;-50
2024/03/21 06:55:41;;;;;;;0.73;0.73;;;;;;;10.45;100.00;100680.47;5017180;28;20460;-50
2024/03/21 06:58:07;;;;;;;0.30;0.20;;;;;;;10.56;100.00;100690.84;5016568;28;20244;-50
2024/03/21 07:00:35;;;;;;;0.30;0.20;;;;;;;10.61;100.00;100694.28;5016908;28;20716;-50
2024/03/21 07:03:04;;;;;;;0.30;0.20;;;;;;;10.64;100.00;100686.22;5016805;28;20459;-50
2024/03/21 07:05:29;;;;;;;0.30;0.20;;;;;;;10.76;100.00;100693.06;5016643;28;20479;-50
2024/03/21 07:07:55;;;;;;;0.30;0.20;;;;;;;10.73;100.00;100703.78;5016607;28;20484;-50
2024/03/21 07:10:21;;;;;;;0.30;0.20;;;;;;;10.85;100.00;100699.03;5000569;28;20217;-50
2024/03/21 07:12:47;;;;;;;0.30;0.20;;;;;;;10.81;100.00;100701.78;5016571;28;20434;-49
2024/03/21 07:15:16;;;;;;;0.30;0.20;;;;;;;11.00;100.00;100707.56;5016725;28;20267;-50
2024/03/21 07:17:42;;;;;;;0.30;0.30;;;;;;;11.04;100.00;100720.75;5016217;28;20507;-50
2024/03/21 07:20:10;;;;;;;0.30;0.20;;;;;;;11.13;100.00;100719.69;5016737;28;20483;-50
2024/03/21 07:22:37;;;;;;;0.30;0.20;;;;;;;11.19;100.00;100724.84;5016617;28;20479;-50
2024/03/21 07:25:03;;;;;;;0.30;0.20;;;;;;;11.24;100.00;100718.50;5016480;28;20483;-50
2024/03/21 07:27:29;;;;;;;0.30;0.23;;;;;;;11.31;100.00;100707.69;5003284;28;20471;-51
2024/03/21 07:29:54;;;;;;;0.30;0.20;;;;;;;11.43;100.00;100710.94;5016598;28;20828;-51
2024/03/21 07:32:20;;;;;;;0.30;0.20;;;;;;;11.46;100.00;100721.50;5016614;28;20627;-50
2024/03/21 07:34:45;;;;;;;0.30;0.20;;;;;;;11.49;100.00;100718.75;5016154;28;20248;-51
2024/03/21 07:37:11;;;;;;;0.73;0.73;;;;;;;11.55;100.00;100720.41;5016340;28;20229;-50
2024/03/21 07:39:36;;;;;;;0.30;0.20;;;;;;;11.54;100.00;100721.31;5015905;28;20237;-50
2024/03/21 07:42:03;;;;;;;0.30;0.20;;;;;;;11.53;100.00;100724.91;5014190;28;20291;-50
2024/03/21 07:44:29;;;;;;;0.30;0.20;;;;;;;11.69;100.00;100731.56;5016123;28;20224;-50
2024/03/21 07:46:55;;;;;;;0.30;0.20;;;;;;;11.75;100.00;100741.19;5015167;28;20833;-50
2024/03/21 07:49:21;;;;;;;0.30;0.20;;;;;;;11.83;100.00;100742.75;5015706;28;20609;-50
2024/03/21 07:51:47;;;;;;;0.30;0.20;;;;;;;11.95;100.00;100744.22;5016145;28;20248;-50
2024/03/21 07:54:13;;;;;;;0.30;0.20;;;;;;;12.07;100.00;100746.56;5015986;28;20252;-50
2024/03/21 07:56:39;;;;;;;0.30;0.20;;;;;;;12.16;100.00;100748.09;5011337;28;20976;-51
2024/03/21 07:59:05;;;;;;;0.30;0.20;;;;;;;12.43;100.00;100752.63;5015642;28;20240;-49
2024/03/21 08:01:32;;;;;;;0.30;0.20;;;;;;;12.66;100.00;100759.09;5002521;28;20678;-51
2024/03/21 08:03:57;;;;;;;0.30;0.20;;;;;;;12.65;100.00;100760.91;5015872;28;20478;-51
2024/03/21 08:06:23;;;;;;;0.30;0.20;;;;;;;12.90;99.82;100760.16;5002752;28;20522;-51
2024/03/21 08:08:48;;;;;;;0.30;0.20;;;;;;;13.31;98.88;100762.44;5015413;28;20252;-50
2024/03/21 08:11:14;;;;;;;0.73;0.73;;;;;;;13.64;98.51;100763.13;5015411;28;20685;-51
2024/03/21 08:13:43;;;;;;;0.30;0.20;;;;;;;13.57;97.84;100766.06;5015797;28;20217;-51
2024/03/21 08:16:09;;;;;;;0.30;0.20;;;;;;;13.82;96.66;100771.44;5015344;28;20678;-51
2024/03/21 08:18:35;;;;;;;0.30;0.20;;;;;;;13.93;95.84;100779.97;5015065;28;20492;-51
2024/03/21 08:21:01;;;;;;;0.30;0.20;;;;;;;14.15;94.78;100785.44;5015585;28;20434;-51
2024/03/21 08:23:28;;;;;;;0.30;0.20;;;;;;;14.09;93.72;100780.28;5015421;28;20228;-50
2024/03/21 08:25:53;;;;;;;0.30;0.20;;;;;;;14.19;94.01;100763.88;5015426;28;20883;-51
2024/03/21 08:28:19;;;;;;;0.30;0.20;;;;;;;14.51;93.16;100767.22;5015039;28;20454;-50
2024/03/21 08:30:46;;;;;;;0.30;0.20;;;;;;;14.65;92.78;100774.72;5015104;28;20217;-50
2024/03/21 08:33:15;;;;;;;0.30;0.20;;;;;;;14.55;93.09;100768.00;5015399;28;20283;-51
2024/03/21 08:35:41;;;;;;;0.57;0.57;;;;;;;14.48;92.75;100783.38;5014912;28;20831;-51
2024/03/21 08:38:07;;;;;;;0.30;0.20;;;;;;;14.72;92.12;100778.94;5014670;28;20492;-50
2024/03/21 08:40:32;;;;;;;2.00;2.00;;;;;;;14.87;92.21;100782.81;5014930;28;20464;-50
2024/03/21 08:42:58;;;;;;;0.30;0.20;;;;;;;14.94;91.46;100798.59;5012920;28;20231;-51
2024/03/21 08:45:24;;;;;;;0.30;0.20;;;;;;;14.95;91.29;100794.13;5015240;28;20220;-51
2024/03/21 08:47:50;;;;;;;0.30;0.20;;;;;;;15.24;90.35;100809.06;5014902;28;20606;-50
2024/03/21 08:50:17;;;;;;;0.30;0.20;;;;;;;15.23;89.48;100809.97;5015231;28;20221;-51
2024/03/21 08:52:43;;;;;;;0.30;0.20;;;;;;;15.32;89.91;100807.78;5014868;28;20438;-51
2024/03/21 08:55:08;;;;;;;0.30;0.20;;;;;;;15.32;89.49;100812.28;5014994;28;20931;-51
2024/03/21 08:57:35;;;;;;;0.40;0.20;;;;;;;15.30;89.29;100819.50;5014580;28;20714;-51
2024/03/21 09:00:03;;;;;;;0.30;0.20;;;;;;;15.40;89.29;100818.22;5014606;28;20213;-50
2024/03/21 09:02:29;;;;;;;0.30;0.20;;;;;;;15.46;88.91;100815.28;5015043;28;20442;-51
2024/03/21 09:04:54;;;;;;;0.33;0.20;;;;;;;15.49;88.77;100825.00;5014960;28;20463;-51
2024/03/21 09:07:20;;;;;;;0.30;0.20;;;;;;;15.38;87.91;100838.84;5014825;28;20489;-50
2024/03/21 09:09:45;;;;;;;0.30;0.20;;;;;;;15.61;87.55;100836.13;5014631;28;20248;-51
2024/03/21 09:12:11;;;;;;;0.30;0.20;;;;;;;15.72;86.04;100838.38;5014814;28;20299;-50
2024/03/21 09:14:36;;;;;;;0.30;0.20;;;;;;;15.76;87.54;100841.78;5014732;28;20217;-50
2024/03/21 09:17:02;;;;;;;0.40;0.30;;;;;;;15.82;86.87;100847.78;5014386;28;20283;-51
2024/03/21 09:19:27;;;;;;;0.40;0.20;;;;;;;15.73;86.83;100858.00;5015169;28;20236;-51
2024/03/21 09:21:55;;;;;;;0.83;0.83;;;;;;;15.82;86.05;100858.50;5014262;28;20248;-50
2024/03/21 09:24:21;;;;;;;0.70;0.70;;;;;;;15.95;85.06;100859.75;5014141;28;20581;-51
2024/03/21 09:26:47;;;;;;;0.30;0.20;;;;;;;15.88;85.98;100863.59;5014241;28;20463;-50
2024/03/21 09:29:12;;;;;;;0.30;0.20;;;;;;;15.83;85.08;100862.06;5014440;28;21058;-50
2024/03/21 09:31:38;;;;;;;0.30;0.20;;;;;;;16.08;85.00;100862.78;5014320;28;20224;-51
2024/03/21 09:34:03;;;;;;;0.30;0.20;;;;;;;16.18;84.89;100864.16;5014481;28;20578;-50
2024/03/21 09:36:29;;;;;;;0.30;0.20;;;;;;;16.22;83.82;100864.91;5014125;28;20266;-51
2024/03/21 09:38:54;;;;;;;0.30;0.30;;;;;;;15.97;82.76;100867.72;5014135;28;20244;-50
2024/03/21 09:41:20;;;;;;;0.70;0.70;;;;;;;15.84;83.42;100863.81;5012403;28;20228;-51
2024/03/21 09:43:46;;;;;;;0.30;0.20;;;;;;;15.65;84.16;100869.06;5014552;28;20263;-51
2024/03/21 09:46:21;;;;;;;0.30;0.20;;;;;;;15.59;84.18;100880.88;5014086;28;20256;-50
2024/03/21 09:48:46;;;;;;;0.40;0.30;;;;;;;15.48;84.88;100883.06;5014152;28;20232;-50
2024/03/21 09:51:19;;;;;;;0.30;0.20;;;;;;;15.43;84.87;100887.75;5014438;28;20466;-50
2024/03/21 09:53:46;;;;;;;0.30;0.20;;;;;;;15.23;85.29;100893.88;5014536;28;20221;-51
2024/03/21 09:56:14;;;;;;;0.30;0.20;;;;;;;15.27;84.59;100892.81;5014506;28;20460;-50
2024/03/21 09:58:40;;;;;;;0.30;0.20;;;;;;;15.38;85.07;100889.75;5014114;28;21035;-50
2024/03/21 10:01:18;;;;;;;0.60;0.60;;;;;;;15.29;85.14;100895.44;5014383;28;20467;-50
2024/03/21 10:03:47;;;;;;;0.30;0.20;;;;;;;15.39;85.59;100891.47;5014109;28;20953;-51
2024/03/21 10:06:13;;;;;;;0.30;0.20;;;;;;;15.39;84.89;100891.47;5014360;28;20502;-50
2024/03/21 10:08:39;;;;;;;0.40;0.20;;;;;;;15.45;84.25;100904.63;5014089;28;20458;-51
2024/03/21 10:11:05;;;;;;;0.30;0.20;;;;;;;15.33;83.30;100903.28;5015588;28;20302;-50
2024/03/21 10:13:30;;;;;;;0.30;0.20;;;;;;;15.41;82.70;100911.03;5018023;28;20228;-50
2024/03/21 10:15:56;;;;;;;0.30;0.30;;;;;;;15.57;81.59;100901.47;5017843;28;20434;-50
2024/03/21 10:18:21;;;;;;;0.30;0.20;;;;;;;15.60;81.43;100904.06;5017533;28;20249;-50
2024/03/21 10:20:48;;;;;;;0.40;0.20;;;;;;;15.58;81.59;100897.84;5017780;28;20619;-50
2024/03/21 10:23:17;;;;;;;0.30;0.20;;;;;;;15.96;80.29;100904.41;5017711;28;20274;-51
2024/03/21 10:25:46;;;;;;;0.30;0.20;;;;;;;16.15;80.39;100907.19;5017500;28;21009;-50
2024/03/21 10:28:16;;;;;;;0.30;0.20;;;;;;;16.20;79.55;100902.53;5017595;28;20446;-50
2024/03/21 10:30:42;;;;;;;0.30;0.20;;;;;;;16.52;78.55;100909.19;5017654;28;20455;-50
2024/03/21 10:33:15;;;;;;;0.30;0.20;;;;;;;16.47;78.61;100913.03;5017365;28;20533;-50
2024/03/21 10:35:41;;;;;;;0.30;0.20;;;;;;;16.23;78.30;100910.44;5017705;28;20891;-50
2024/03/21 10:38:13;;;;;;;0.30;0.20;;;;;;;16.41;76.77;100903.41;5017220;28;20469;-51
2024/03/21 10:40:46;;;;;;;0.30;0.20;;;;;;;16.50;77.59;100919.13;5017457;28;20231;-50
2024/03/21 10:43:15;;;;;;;0.30;0.20;;;;;;;16.78;76.71;100910.78;5014891;28;20472;-50
2024/03/21 10:45:42;;;;;;;0.30;0.20;;;;;;;16.54;76.42;100917.16;5017292;28;20430;-50
2024/03/21 10:48:25;;;;;;;0.40;0.30;;;;;;;16.68;76.70;100919.28;5016601;28;20476;-50
2024/03/21 10:50:51;;;;;;;0.30;0.30;;;;;;;16.59;76.88;100924.09;5016882;28;20957;-50
2024/03/21 10:53:20;;;;;;;0.30;0.20;;;;;;;16.65;75.26;100922.97;5017054;28;20471;-50
2024/03/21 10:55:48;;;;;;;0.30;0.20;;;;;;;16.51;76.62;100923.56;5017004;28;20271;-50
2024/03/21 10:58:15;;;;;;;0.30;0.20;;;;;;;16.60;77.34;100924.97;5016555;28;20859;-51
2024/03/21 11:00:49;;;;;;;0.30;0.20;;;;;;;16.38;76.54;100926.81;5016831;28;20445;-49
2024/03/21 11:03:15;;;;;;;0.30;0.20;;;;;;;16.45;76.60;100931.00;5016756;28;20442;-50
2024/03/21 11:05:42;;;;;;;0.40;0.20;;;;;;;16.65;73.67;100932.81;5016713;28;20441;-51
2024/03/21 11:08:27;;;;;;;0.30;0.20;;;;;;;16.99;72.20;100927.72;5017074;28;20462;-51
2024/03/21 11:10:55;;;;;;;0.30;0.20;;;;;;;17.11;67.74;100923.63;5016335;28;20810;-51
2024/03/21 11:13:24;;;;;;;0.30;0.20;;;;;;;17.46;67.42;100919.31;5016701;28;20430;-50
2024/03/21 11:15:49;;;;;;;0.30;0.20;;;;;;;17.46;66.90;100919.31;5016201;28;20469;-51
2024/03/21 11:18:15;;;;;;;0.30;0.20;;;;;;;17.50;64.52;100930.78;5016184;28;20503;-50
2024/03/21 11:20:41;;;;;;;0.30;0.20;;;;;;;17.39;65.76;100913.34;5016198;28;20700;-47
2024/03/21 11:23:12;;;;;;;0.40;0.20;;;;;;;17.50;64.92;100912.84;5016335;28;20236;-47